sensor_id;sensor_type;location;lat;lon;timestamp;temperature;humidity
44863;DHT22;30597;49.628;10.850;2022-09-11T00:00:28;23.20;53.40
44863;DHT22;30597;49.628;10.850;2022-09-11T00:02:54;23.20;53.30
44863;DHT22;30597;49.628;10.850;2022-09-11T00:05:19;23.30;53.40
44863;DHT22;30597;49.628;10.850;2022-09-11T00:07:45;23.30;53.40
44863;DHT22;30597;49.628;10.850;2022-09-11T00:10:11;23.30;53.40
44863;DHT22;30597;49.628;10.850;2022-09-11T00:12:37;23.30;53.30
44863;DHT22;30597;49.628;10.850;2022-09-11T00:15:03;23.30;53.40
44863;DHT22;30597;49.628;10.850;2022-09-11T00:17:28;23.20;53.30
44863;DHT22;30597;49.628;10.850;2022-09-11T00:19:54;23.20;53.70
44863;DHT22;30597;49.628;10.850;2022-09-11T00:22:19;23.20;53.80
44863;DHT22;30597;49.628;10.850;2022-09-11T00:24:46;23.20;53.90
44863;DHT22;30597;49.628;10.850;2022-09-11T00:27:11;23.30;54.20
44863;DHT22;30597;49.628;10.850;2022-09-11T00:29:37;23.20;54.10
44863;DHT22;30597;49.628;10.850;2022-09-11T00:32:03;23.20;54.20
44863;DHT22;30597;49.628;10.850;2022-09-11T00:34:29;23.20;54.30
44863;DHT22;30597;49.628;10.850;2022-09-11T00:36:54;23.20;54.40
44863;DHT22;30597;49.628;10.850;2022-09-11T00:39:20;23.10;54.40
44863;DHT22;30597;49.628;10.850;2022-09-11T00:41:46;23.10;54.60
44863;DHT22;30597;49.628;10.850;2022-09-11T00:46:49;23.20;54.80
44863;DHT22;30597;49.628;10.850;2022-09-11T00:49:24;23.20;55.00
44863;DHT22;30597;49.628;10.850;2022-09-11T00:52:22;23.00;55.00
44863;DHT22;30597;49.628;10.850;2022-09-11T00:54:51;23.10;55.10
44863;DHT22;30597;49.628;10.850;2022-09-11T00:57:20;23.00;55.30
44863;DHT22;30597;49.628;10.850;2022-09-11T00:59:49;23.00;55.30
44863;DHT22;30597;49.628;10.850;2022-09-11T01:02:18;23.00;55.50
44863;DHT22;30597;49.628;10.850;2022-09-11T01:04:45;23.00;55.40
44863;DHT22;30597;49.628;10.850;2022-09-11T01:07:12;23.00;55.20
44863;DHT22;30597;49.628;10.850;2022-09-11T01:09:38;23.00;55.40
44863;DHT22;30597;49.628;10.850;2022-09-11T01:12:18;23.00;55.30
44863;DHT22;30597;49.628;10.850;2022-09-11T01:15:06;23.00;55.50
44863;DHT22;30597;49.628;10.850;2022-09-11T01:26:51;22.90;55.60
44863;DHT22;30597;49.628;10.850;2022-09-11T01:29:24;22.90;55.60
44863;DHT22;30597;49.628;10.850;2022-09-11T01:32:18;22.90;55.60
44863;DHT22;30597;49.628;10.850;2022-09-11T01:35:00;22.90;55.70
44863;DHT22;30597;49.628;10.850;2022-09-11T01:37:47;22.90;55.60
44863;DHT22;30597;49.628;10.850;2022-09-11T01:40:31;22.90;55.80
44863;DHT22;30597;49.628;10.850;2022-09-11T01:43:09;22.90;55.90
44863;DHT22;30597;49.628;10.850;2022-09-11T01:45:43;22.90;55.80
44863;DHT22;30597;49.628;10.850;2022-09-11T01:48:12;22.90;55.90
44863;DHT22;30597;49.628;10.850;2022-09-11T01:50:41;22.90;55.90
44863;DHT22;30597;49.628;10.850;2022-09-11T01:53:10;22.90;55.90
44863;DHT22;30597;49.628;10.850;2022-09-11T01:55:55;22.90;55.90
44863;DHT22;30597;49.628;10.850;2022-09-11T01:58:26;22.90;55.90
44863;DHT22;30597;49.628;10.850;2022-09-11T02:00:57;22.90;55.90
44863;DHT22;30597;49.628;10.850;2022-09-11T02:03:50;22.90;56.60
44863;DHT22;30597;49.628;10.850;2022-09-11T02:06:29;22.90;56.00
44863;DHT22;30597;49.628;10.850;2022-09-11T02:09:02;22.80;56.00
44863;DHT22;30597;49.628;10.850;2022-09-11T02:11:33;22.90;56.10
44863;DHT22;30597;49.628;10.850;2022-09-11T02:14:12;22.90;56.10
44863;DHT22;30597;49.628;10.850;2022-09-11T02:17:05;22.90;56.40
44863;DHT22;30597;49.628;10.850;2022-09-11T02:19:33;22.90;56.20
44863;DHT22;30597;49.628;10.850;2022-09-11T02:21:59;22.90;56.20
44863;DHT22;30597;49.628;10.850;2022-09-11T02:24:32;22.90;56.30
44863;DHT22;30597;49.628;10.850;2022-09-11T02:27:05;22.90;56.00
44863;DHT22;30597;49.628;10.850;2022-09-11T02:29:34;22.90;56.30
44863;DHT22;30597;49.628;10.850;2022-09-11T02:32:01;22.90;56.20
44863;DHT22;30597;49.628;10.850;2022-09-11T02:34:33;22.90;56.70
44863;DHT22;30597;49.628;10.850;2022-09-11T02:37:25;22.90;56.60
44863;DHT22;30597;49.628;10.850;2022-09-11T02:59:02;22.80;57.00
44863;DHT22;30597;49.628;10.850;2022-09-11T03:01:29;22.80;56.90
44863;DHT22;30597;49.628;10.850;2022-09-11T03:03:56;22.90;57.10
44863;DHT22;30597;49.628;10.850;2022-09-11T03:06:24;22.80;57.10
44863;DHT22;30597;49.628;10.850;2022-09-11T03:08:51;22.80;57.30
44863;DHT22;30597;49.628;10.850;2022-09-11T03:11:19;22.80;57.10
44863;DHT22;30597;49.628;10.850;2022-09-11T03:13:45;22.80;57.00
44863;DHT22;30597;49.628;10.850;2022-09-11T03:16:11;22.80;57.00
44863;DHT22;30597;49.628;10.850;2022-09-11T03:18:37;22.80;56.90
44863;DHT22;30597;49.628;10.850;2022-09-11T03:21:03;22.90;57.10
44863;DHT22;30597;49.628;10.850;2022-09-11T03:23:30;22.80;57.00
44863;DHT22;30597;49.628;10.850;2022-09-11T03:25:57;22.90;57.00
44863;DHT22;30597;49.628;10.850;2022-09-11T03:28:23;22.90;57.10
44863;DHT22;30597;49.628;10.850;2022-09-11T03:30:50;22.80;57.10
44863;DHT22;30597;49.628;10.850;2022-09-11T03:33:17;22.90;57.10
44863;DHT22;30597;49.628;10.850;2022-09-11T03:35:43;22.90;57.10
44863;DHT22;30597;49.628;10.850;2022-09-11T03:38:09;22.80;57.00
44863;DHT22;30597;49.628;10.850;2022-09-11T03:40:38;22.90;57.10
44863;DHT22;30597;49.628;10.850;2022-09-11T03:43:05;22.80;57.10
44863;DHT22;30597;49.628;10.850;2022-09-11T03:45:32;22.80;57.00
44863;DHT22;30597;49.628;10.850;2022-09-11T03:47:58;22.90;57.10
44863;DHT22;30597;49.628;10.850;2022-09-11T03:50:24;22.80;57.00
44863;DHT22;30597;49.628;10.850;2022-09-11T03:52:51;22.80;57.10
44863;DHT22;30597;49.628;10.850;2022-09-11T03:55:17;22.80;57.20
44863;DHT22;30597;49.628;10.850;2022-09-11T03:57:43;22.90;57.20
44863;DHT22;30597;49.628;10.850;2022-09-11T04:00:09;22.90;57.20
44863;DHT22;30597;49.628;10.850;2022-09-11T04:02:37;22.80;57.30
44863;DHT22;30597;49.628;10.850;2022-09-11T04:05:03;22.80;57.10
44863;DHT22;30597;49.628;10.850;2022-09-11T04:07:28;22.80;57.10
44863;DHT22;30597;49.628;10.850;2022-09-11T04:09:56;22.90;57.30
44863;DHT22;30597;49.628;10.850;2022-09-11T04:12:22;22.80;57.30
44863;DHT22;30597;49.628;10.850;2022-09-11T04:14:48;22.90;57.30
44863;DHT22;30597;49.628;10.850;2022-09-11T04:17:15;22.90;57.30
44863;DHT22;30597;49.628;10.850;2022-09-11T04:19:40;22.80;57.20
44863;DHT22;30597;49.628;10.850;2022-09-11T04:22:08;22.90;57.30
44863;DHT22;30597;49.628;10.850;2022-09-11T04:24:33;22.90;57.30
44863;DHT22;30597;49.628;10.850;2022-09-11T04:26:59;22.90;57.20
44863;DHT22;30597;49.628;10.850;2022-09-11T04:29:27;22.90;57.20
44863;DHT22;30597;49.628;10.850;2022-09-11T04:31:53;22.80;57.30
44863;DHT22;30597;49.628;10.850;2022-09-11T04:34:20;22.80;57.10
44863;DHT22;30597;49.628;10.850;2022-09-11T04:36:46;22.80;57.10
44863;DHT22;30597;49.628;10.850;2022-09-11T04:39:12;22.90;57.30
44863;DHT22;30597;49.628;10.850;2022-09-11T04:41:38;22.80;57.40
44863;DHT22;30597;49.628;10.850;2022-09-11T04:44:06;22.80;57.30
44863;DHT22;30597;49.628;10.850;2022-09-11T04:46:32;22.70;57.20
44863;DHT22;30597;49.628;10.850;2022-09-11T04:48:58;22.70;57.20
44863;DHT22;30597;49.628;10.850;2022-09-11T04:51:27;22.70;57.30
44863;DHT22;30597;49.628;10.850;2022-09-11T04:53:55;22.70;57.40
44863;DHT22;30597;49.628;10.850;2022-09-11T04:56:23;22.70;57.40
44863;DHT22;30597;49.628;10.850;2022-09-11T04:58:54;22.70;57.30
44863;DHT22;30597;49.628;10.850;2022-09-11T05:01:21;22.70;57.40
44863;DHT22;30597;49.628;10.850;2022-09-11T05:03:46;22.70;57.40
44863;DHT22;30597;49.628;10.850;2022-09-11T05:06:14;22.70;57.40
44863;DHT22;30597;49.628;10.850;2022-09-11T05:08:45;22.70;57.50
44863;DHT22;30597;49.628;10.850;2022-09-11T05:11:16;22.70;57.70
44863;DHT22;30597;49.628;10.850;2022-09-11T05:13:43;22.70;57.80
44863;DHT22;30597;49.628;10.850;2022-09-11T05:16:12;22.80;57.90
44863;DHT22;30597;49.628;10.850;2022-09-11T05:18:39;22.70;57.70
44863;DHT22;30597;49.628;10.850;2022-09-11T05:21:12;22.70;57.70
44863;DHT22;30597;49.628;10.850;2022-09-11T05:23:38;22.70;57.80
44863;DHT22;30597;49.628;10.850;2022-09-11T05:26:12;22.60;57.70
44863;DHT22;30597;49.628;10.850;2022-09-11T05:28:38;22.70;57.90
44863;DHT22;30597;49.628;10.850;2022-09-11T05:31:10;22.70;57.70
44863;DHT22;30597;49.628;10.850;2022-09-11T05:33:36;22.70;57.80
44863;DHT22;30597;49.628;10.850;2022-09-11T05:36:04;22.60;57.60
44863;DHT22;30597;49.628;10.850;2022-09-11T05:38:35;22.70;57.80
44863;DHT22;30597;49.628;10.850;2022-09-11T05:41:08;22.60;57.70
44863;DHT22;30597;49.628;10.850;2022-09-11T05:43:37;22.60;57.70
44863;DHT22;30597;49.628;10.850;2022-09-11T05:46:04;22.70;57.80
44863;DHT22;30597;49.628;10.850;2022-09-11T05:48:31;22.60;57.80
44863;DHT22;30597;49.628;10.850;2022-09-11T05:50:59;22.70;57.90
44863;DHT22;30597;49.628;10.850;2022-09-11T05:53:29;22.60;58.10
44863;DHT22;30597;49.628;10.850;2022-09-11T05:56:04;22.60;57.80
44863;DHT22;30597;49.628;10.850;2022-09-11T05:58:30;22.70;57.40
44863;DHT22;30597;49.628;10.850;2022-09-11T06:01:08;22.70;57.00
44863;DHT22;30597;49.628;10.850;2022-09-11T06:03:35;22.70;56.80
44863;DHT22;30597;49.628;10.850;2022-09-11T06:06:02;22.80;56.90
44863;DHT22;30597;49.628;10.850;2022-09-11T06:08:28;22.70;56.70
44863;DHT22;30597;49.628;10.850;2022-09-11T06:10:56;22.80;56.60
44863;DHT22;30597;49.628;10.850;2022-09-11T06:13:28;22.80;56.50
44863;DHT22;30597;49.628;10.850;2022-09-11T06:15:54;22.80;56.20
44863;DHT22;30597;49.628;10.850;2022-09-11T06:18:26;22.80;56.10
44863;DHT22;30597;49.628;10.850;2022-09-11T06:21:02;22.80;56.30
44863;DHT22;30597;49.628;10.850;2022-09-11T06:23:32;22.90;57.00
44863;DHT22;30597;49.628;10.850;2022-09-11T06:26:09;22.90;56.20
44863;DHT22;30597;49.628;10.850;2022-09-11T06:28:35;22.90;56.20
44863;DHT22;30597;49.628;10.850;2022-09-11T06:31:12;23.00;56.10
44863;DHT22;30597;49.628;10.850;2022-09-11T06:33:40;23.00;56.00
44863;DHT22;30597;49.628;10.850;2022-09-11T06:36:10;23.00;55.90
44863;DHT22;30597;49.628;10.850;2022-09-11T06:38:37;23.00;55.80
44863;DHT22;30597;49.628;10.850;2022-09-11T06:41:05;23.00;55.70
44863;DHT22;30597;49.628;10.850;2022-09-11T06:43:31;23.10;55.70
44863;DHT22;30597;49.628;10.850;2022-09-11T06:46:14;23.10;55.60
44863;DHT22;30597;49.628;10.850;2022-09-11T06:48:42;23.10;55.60
44863;DHT22;30597;49.628;10.850;2022-09-11T06:51:10;23.10;55.60
44863;DHT22;30597;49.628;10.850;2022-09-11T06:53:36;23.10;55.60
44863;DHT22;30597;49.628;10.850;2022-09-11T06:56:03;23.10;55.30
44863;DHT22;30597;49.628;10.850;2022-09-11T06:58:30;23.10;55.30
44863;DHT22;30597;49.628;10.850;2022-09-11T07:01:11;23.10;55.20
44863;DHT22;30597;49.628;10.850;2022-09-11T07:03:37;23.10;55.20
44863;DHT22;30597;49.628;10.850;2022-09-11T07:06:03;23.10;55.10
44863;DHT22;30597;49.628;10.850;2022-09-11T07:08:30;23.10;55.10
44863;DHT22;30597;49.628;10.850;2022-09-11T07:11:01;23.20;55.10
44863;DHT22;30597;49.628;10.850;2022-09-11T07:13:29;23.10;55.10
44863;DHT22;30597;49.628;10.850;2022-09-11T07:16:05;23.20;55.00
44863;DHT22;30597;49.628;10.850;2022-09-11T07:18:50;23.20;55.10
44863;DHT22;30597;49.628;10.850;2022-09-11T07:21:23;23.20;55.10
44863;DHT22;30597;49.628;10.850;2022-09-11T07:23:52;23.20;55.30
44863;DHT22;30597;49.628;10.850;2022-09-11T07:26:19;23.20;55.10
44863;DHT22;30597;49.628;10.850;2022-09-11T07:28:46;23.20;55.00
44863;DHT22;30597;49.628;10.850;2022-09-11T07:31:21;23.20;55.10
44863;DHT22;30597;49.628;10.850;2022-09-11T07:33:48;23.20;55.00
44863;DHT22;30597;49.628;10.850;2022-09-11T07:36:19;23.30;55.00
44863;DHT22;30597;49.628;10.850;2022-09-11T07:38:49;23.30;55.20
44863;DHT22;30597;49.628;10.850;2022-09-11T07:41:17;23.30;55.10
44863;DHT22;30597;49.628;10.850;2022-09-11T07:43:43;23.30;55.00
44863;DHT22;30597;49.628;10.850;2022-09-11T07:46:15;23.30;54.90
44863;DHT22;30597;49.628;10.850;2022-09-11T07:48:41;23.30;54.80
44863;DHT22;30597;49.628;10.850;2022-09-11T07:51:10;23.40;54.90
44863;DHT22;30597;49.628;10.850;2022-09-11T07:53:41;23.30;54.70
44863;DHT22;30597;49.628;10.850;2022-09-11T07:56:11;23.30;54.80
44863;DHT22;30597;49.628;10.850;2022-09-11T07:58:39;23.30;54.70
44863;DHT22;30597;49.628;10.850;2022-09-11T08:01:06;23.30;54.70
44863;DHT22;30597;49.628;10.850;2022-09-11T08:03:33;23.30;54.70
44863;DHT22;30597;49.628;10.850;2022-09-11T08:06:03;23.30;54.70
44863;DHT22;30597;49.628;10.850;2022-09-11T08:08:29;23.30;54.70
44863;DHT22;30597;49.628;10.850;2022-09-11T08:11:00;23.30;54.60
44863;DHT22;30597;49.628;10.850;2022-09-11T08:13:26;23.30;54.60
44863;DHT22;30597;49.628;10.850;2022-09-11T08:15:51;23.30;54.60
44863;DHT22;30597;49.628;10.850;2022-09-11T08:18:17;23.30;54.50
44863;DHT22;30597;49.628;10.850;2022-09-11T08:20:43;23.30;54.60
44863;DHT22;30597;49.628;10.850;2022-09-11T08:23:09;23.40;54.60
44863;DHT22;30597;49.628;10.850;2022-09-11T08:25:36;23.40;54.70
44863;DHT22;30597;49.628;10.850;2022-09-11T08:28:02;23.40;54.80
44863;DHT22;30597;49.628;10.850;2022-09-11T08:30:28;23.40;54.70
44863;DHT22;30597;49.628;10.850;2022-09-11T08:32:54;23.40;54.70
44863;DHT22;30597;49.628;10.850;2022-09-11T08:35:19;23.40;54.60
44863;DHT22;30597;49.628;10.850;2022-09-11T08:37:45;23.40;54.60
44863;DHT22;30597;49.628;10.850;2022-09-11T08:40:11;23.40;54.60
44863;DHT22;30597;49.628;10.850;2022-09-11T08:42:42;23.50;54.60
44863;DHT22;30597;49.628;10.850;2022-09-11T08:45:19;23.50;54.60
44863;DHT22;30597;49.628;10.850;2022-09-11T08:47:50;23.40;54.40
44863;DHT22;30597;49.628;10.850;2022-09-11T08:50:22;23.30;54.60
44863;DHT22;30597;49.628;10.850;2022-09-11T08:52:49;23.30;54.60
44863;DHT22;30597;49.628;10.850;2022-09-11T08:55:20;23.40;54.60
44863;DHT22;30597;49.628;10.850;2022-09-11T09:01:06;23.30;54.70
44863;DHT22;30597;49.628;10.850;2022-09-11T09:04:02;23.30;54.70
44863;DHT22;30597;49.628;10.850;2022-09-11T09:09:47;23.30;55.40
44863;DHT22;30597;49.628;10.850;2022-09-11T09:13:01;23.20;55.30
44863;DHT22;30597;49.628;10.850;2022-09-11T09:15:35;23.20;55.30
44863;DHT22;30597;49.628;10.850;2022-09-11T09:18:09;23.20;55.30
44863;DHT22;30597;49.628;10.850;2022-09-11T09:20:41;23.20;55.30
44863;DHT22;30597;49.628;10.850;2022-09-11T09:23:18;23.10;55.20
44863;DHT22;30597;49.628;10.850;2022-09-11T09:25:45;23.10;55.20
44863;DHT22;30597;49.628;10.850;2022-09-11T09:28:21;23.10;55.20
44863;DHT22;30597;49.628;10.850;2022-09-11T09:30:57;23.20;55.10
44863;DHT22;30597;49.628;10.850;2022-09-11T09:33:31;23.20;55.10
44863;DHT22;30597;49.628;10.850;2022-09-11T09:38:38;23.10;54.90
44863;DHT22;30597;49.628;10.850;2022-09-11T09:49:08;23.10;54.80
44863;DHT22;30597;49.628;10.850;2022-09-11T09:51:35;23.10;54.80
44863;DHT22;30597;49.628;10.850;2022-09-11T09:54:01;23.10;54.70
44863;DHT22;30597;49.628;10.850;2022-09-11T09:56:29;23.20;54.80
44863;DHT22;30597;49.628;10.850;2022-09-11T09:59:24;23.20;54.80
44863;DHT22;30597;49.628;10.850;2022-09-11T10:01:51;23.20;54.70
44863;DHT22;30597;49.628;10.850;2022-09-11T10:04:41;23.20;54.60
44863;DHT22;30597;49.628;10.850;2022-09-11T10:07:09;23.20;54.50
44863;DHT22;30597;49.628;10.850;2022-09-11T10:09:42;23.20;54.60
44863;DHT22;30597;49.628;10.850;2022-09-11T10:12:15;23.10;54.60
44863;DHT22;30597;49.628;10.850;2022-09-11T10:14:49;23.10;54.60
44863;DHT22;30597;49.628;10.850;2022-09-11T10:17:23;23.10;54.60
44863;DHT22;30597;49.628;10.850;2022-09-11T10:19:55;23.10;54.60
44863;DHT22;30597;49.628;10.850;2022-09-11T10:22:36;23.10;54.50
44863;DHT22;30597;49.628;10.850;2022-09-11T10:28:02;23.10;54.40
44863;DHT22;30597;49.628;10.850;2022-09-11T10:30:38;23.10;54.40
44863;DHT22;30597;49.628;10.850;2022-09-11T10:33:30;23.10;54.40
44863;DHT22;30597;49.628;10.850;2022-09-11T10:35:59;23.20;54.40
44863;DHT22;30597;49.628;10.850;2022-09-11T10:38:35;23.20;54.40
44863;DHT22;30597;49.628;10.850;2022-09-11T10:43:56;23.10;54.10
44863;DHT22;30597;49.628;10.850;2022-09-11T10:46:26;23.20;54.20
44863;DHT22;30597;49.628;10.850;2022-09-11T10:49:08;23.20;53.90
44863;DHT22;30597;49.628;10.850;2022-09-11T10:51:40;23.20;53.80
44863;DHT22;30597;49.628;10.850;2022-09-11T10:54:20;23.30;53.80
44863;DHT22;30597;49.628;10.850;2022-09-11T10:57:12;23.30;53.80
44863;DHT22;30597;49.628;10.850;2022-09-11T10:59:54;23.30;53.80
44863;DHT22;30597;49.628;10.850;2022-09-11T11:05:04;23.30;53.80
44863;DHT22;30597;49.628;10.850;2022-09-11T11:07:52;23.20;53.70
44863;DHT22;30597;49.628;10.850;2022-09-11T11:10:36;23.20;53.80
44863;DHT22;30597;49.628;10.850;2022-09-11T11:16:20;23.20;53.70
44863;DHT22;30597;49.628;10.850;2022-09-11T11:21:49;23.20;53.80
44863;DHT22;30597;49.628;10.850;2022-09-11T11:24:43;23.20;53.80
44863;DHT22;30597;49.628;10.850;2022-09-11T11:27:36;23.10;53.70
44863;DHT22;30597;49.628;10.850;2022-09-11T11:30:20;23.10;53.70
44863;DHT22;30597;49.628;10.850;2022-09-11T11:38:47;23.10;53.70
44863;DHT22;30597;49.628;10.850;2022-09-11T11:41:18;23.10;54.30
44863;DHT22;30597;49.628;10.850;2022-09-11T11:43:48;23.10;53.70
44863;DHT22;30597;49.628;10.850;2022-09-11T11:46:20;23.10;53.80
44863;DHT22;30597;49.628;10.850;2022-09-11T11:48:54;23.10;53.80
44863;DHT22;30597;49.628;10.850;2022-09-11T11:51:27;23.10;53.80
44863;DHT22;30597;49.628;10.850;2022-09-11T12:04:54;23.10;53.80
44863;DHT22;30597;49.628;10.850;2022-09-11T12:06:55;23.20;53.90
44863;DHT22;30597;49.628;10.850;2022-09-11T12:09:20;23.20;53.80
44863;DHT22;30597;49.628;10.850;2022-09-11T12:11:48;23.30;54.00
44863;DHT22;30597;49.628;10.850;2022-09-11T12:14:29;23.40;54.20
44863;DHT22;30597;49.628;10.850;2022-09-11T12:17:26;23.40;54.20
44863;DHT22;30597;49.628;10.850;2022-09-11T12:22:43;23.40;54.10
44863;DHT22;30597;49.628;10.850;2022-09-11T12:32:58;23.40;54.30
44863;DHT22;30597;49.628;10.850;2022-09-11T12:35:49;23.40;54.20
44863;DHT22;30597;49.628;10.850;2022-09-11T12:38:37;23.40;54.30
44863;DHT22;30597;49.628;10.850;2022-09-11T12:41:14;23.30;54.30
44863;DHT22;30597;49.628;10.850;2022-09-11T12:46:27;23.40;54.30
44863;DHT22;30597;49.628;10.850;2022-09-11T12:51:36;23.40;54.10
44863;DHT22;30597;49.628;10.850;2022-09-11T12:57:00;23.40;54.00
44863;DHT22;30597;49.628;10.850;2022-09-11T12:59:34;23.40;54.00
44863;DHT22;30597;49.628;10.850;2022-09-11T13:02:13;23.40;54.30
44863;DHT22;30597;49.628;10.850;2022-09-11T13:04:45;23.30;54.10
44863;DHT22;30597;49.628;10.850;2022-09-11T13:07:29;23.30;54.20
44863;DHT22;30597;49.628;10.850;2022-09-11T13:10:04;23.40;54.10
44863;DHT22;30597;49.628;10.850;2022-09-11T13:12:52;23.40;53.90
44863;DHT22;30597;49.628;10.850;2022-09-11T13:15:43;23.40;54.00
44863;DHT22;30597;49.628;10.850;2022-09-11T13:18:27;23.40;53.90
44863;DHT22;30597;49.628;10.850;2022-09-11T13:20:57;23.40;53.90
44863;DHT22;30597;49.628;10.850;2022-09-11T13:23:25;23.40;53.90
44863;DHT22;30597;49.628;10.850;2022-09-11T13:25:55;23.30;53.90
44863;DHT22;30597;49.628;10.850;2022-09-11T13:28:23;23.30;53.80
44863;DHT22;30597;49.628;10.850;2022-09-11T13:31:00;23.40;53.90
44863;DHT22;30597;49.628;10.850;2022-09-11T13:33:28;23.30;53.90
44863;DHT22;30597;49.628;10.850;2022-09-11T13:35:59;23.30;53.80
44863;DHT22;30597;49.628;10.850;2022-09-11T13:38:34;23.30;53.80
44863;DHT22;30597;49.628;10.850;2022-09-11T13:41:06;23.30;53.90
44863;DHT22;30597;49.628;10.850;2022-09-11T13:43:40;23.30;53.90
44863;DHT22;30597;49.628;10.850;2022-09-11T13:46:21;23.30;53.90
44863;DHT22;30597;49.628;10.850;2022-09-11T13:48:50;23.30;53.80
44863;DHT22;30597;49.628;10.850;2022-09-11T13:51:28;23.20;53.80
44863;DHT22;30597;49.628;10.850;2022-09-11T13:54:17;23.30;53.90
44863;DHT22;30597;49.628;10.850;2022-09-11T13:59:44;23.20;53.80
44863;DHT22;30597;49.628;10.850;2022-09-11T14:08:17;23.20;53.80
44863;DHT22;30597;49.628;10.850;2022-09-11T14:10:46;23.20;53.80
44863;DHT22;30597;49.628;10.850;2022-09-11T14:13:32;23.20;53.80
44863;DHT22;30597;49.628;10.850;2022-09-11T14:16:06;23.20;53.80
44863;DHT22;30597;49.628;10.850;2022-09-11T14:21:23;23.20;53.70
44863;DHT22;30597;49.628;10.850;2022-09-11T14:23:52;23.20;53.80
44863;DHT22;30597;49.628;10.850;2022-09-11T14:26:39;23.20;53.70
44863;DHT22;30597;49.628;10.850;2022-09-11T14:29:27;23.20;53.70
44863;DHT22;30597;49.628;10.850;2022-09-11T14:31:54;23.20;53.70
44863;DHT22;30597;49.628;10.850;2022-09-11T14:34:25;23.20;53.70
44863;DHT22;30597;49.628;10.850;2022-09-11T14:39:35;23.20;53.70
44863;DHT22;30597;49.628;10.850;2022-09-11T14:42:05;23.20;53.70
44863;DHT22;30597;49.628;10.850;2022-09-11T14:44:33;23.20;53.70
44863;DHT22;30597;49.628;10.850;2022-09-11T14:46:59;23.20;53.60
44863;DHT22;30597;49.628;10.850;2022-09-11T14:49:25;23.10;54.20
44863;DHT22;30597;49.628;10.850;2022-09-11T14:51:56;23.20;53.50
44863;DHT22;30597;49.628;10.850;2022-09-11T14:54:24;23.20;53.60
44863;DHT22;30597;49.628;10.850;2022-09-11T14:56:50;23.20;53.50
44863;DHT22;30597;49.628;10.850;2022-09-11T14:59:16;23.20;53.50
44863;DHT22;30597;49.628;10.850;2022-09-11T15:01:43;23.20;53.50
44863;DHT22;30597;49.628;10.850;2022-09-11T15:04:15;23.20;53.40
44863;DHT22;30597;49.628;10.850;2022-09-11T15:06:41;23.10;53.50
44863;DHT22;30597;49.628;10.850;2022-09-11T15:09:07;23.10;53.40
44863;DHT22;30597;49.628;10.850;2022-09-11T15:11:33;23.10;53.30
44863;DHT22;30597;49.628;10.850;2022-09-11T15:13:58;23.20;53.40
44863;DHT22;30597;49.628;10.850;2022-09-11T15:16:24;23.20;53.40
44863;DHT22;30597;49.628;10.850;2022-09-11T15:18:49;23.10;53.40
44863;DHT22;30597;49.628;10.850;2022-09-11T15:21:15;23.20;53.50
44863;DHT22;30597;49.628;10.850;2022-09-11T15:23:41;23.10;53.30
44863;DHT22;30597;49.628;10.850;2022-09-11T15:26:08;23.20;53.50
44863;DHT22;30597;49.628;10.850;2022-09-11T15:28:36;23.10;53.30
44863;DHT22;30597;49.628;10.850;2022-09-11T15:31:02;23.20;53.40
44863;DHT22;30597;49.628;10.850;2022-09-11T15:33:29;23.20;53.30
44863;DHT22;30597;49.628;10.850;2022-09-11T15:36:02;23.20;53.30
44863;DHT22;30597;49.628;10.850;2022-09-11T15:38:30;23.20;53.30
44863;DHT22;30597;49.628;10.850;2022-09-11T15:40:56;23.20;53.40
44863;DHT22;30597;49.628;10.850;2022-09-11T15:43:33;23.20;53.30
44863;DHT22;30597;49.628;10.850;2022-09-11T15:46:06;23.20;53.40
44863;DHT22;30597;49.628;10.850;2022-09-11T15:48:32;23.10;53.30
44863;DHT22;30597;49.628;10.850;2022-09-11T15:50:59;23.10;53.40
44863;DHT22;30597;49.628;10.850;2022-09-11T15:53:27;23.20;53.40
44863;DHT22;30597;49.628;10.850;2022-09-11T15:56:01;23.10;53.30
44863;DHT22;30597;49.628;10.850;2022-09-11T15:58:29;23.10;53.30
44863;DHT22;30597;49.628;10.850;2022-09-11T16:00:56;23.10;53.30
44863;DHT22;30597;49.628;10.850;2022-09-11T16:03:21;23.10;53.30
44863;DHT22;30597;49.628;10.850;2022-09-11T16:05:47;23.10;53.90
44863;DHT22;30597;49.628;10.850;2022-09-11T16:08:12;23.20;53.30
44863;DHT22;30597;49.628;10.850;2022-09-11T16:10:39;23.10;53.20
44863;DHT22;30597;49.628;10.850;2022-09-11T16:13:06;23.10;53.20
44863;DHT22;30597;49.628;10.850;2022-09-11T16:15:32;23.10;53.20
44863;DHT22;30597;49.628;10.850;2022-09-11T16:17:58;23.10;53.30
44863;DHT22;30597;49.628;10.850;2022-09-11T16:20:24;23.10;53.40
44863;DHT22;30597;49.628;10.850;2022-09-11T16:22:49;23.10;53.20
44863;DHT22;30597;49.628;10.850;2022-09-11T16:25:15;23.10;53.40
44863;DHT22;30597;49.628;10.850;2022-09-11T16:27:42;23.10;53.40
44863;DHT22;30597;49.628;10.850;2022-09-11T16:30:08;23.10;53.10
44863;DHT22;30597;49.628;10.850;2022-09-11T16:32:34;23.20;53.20
44863;DHT22;30597;49.628;10.850;2022-09-11T16:35:02;23.20;53.10
44863;DHT22;30597;49.628;10.850;2022-09-11T16:37:28;23.20;53.00
44863;DHT22;30597;49.628;10.850;2022-09-11T16:39:57;23.20;52.90
44863;DHT22;30597;49.628;10.850;2022-09-11T16:42:22;23.10;52.80
44863;DHT22;30597;49.628;10.850;2022-09-11T16:44:48;23.20;53.70
44863;DHT22;30597;49.628;10.850;2022-09-11T16:47:14;23.20;53.40
44863;DHT22;30597;49.628;10.850;2022-09-11T16:49:40;23.30;53.70
44863;DHT22;30597;49.628;10.850;2022-09-11T16:52:06;23.30;53.60
44863;DHT22;30597;49.628;10.850;2022-09-11T16:54:31;23.30;53.60
44863;DHT22;30597;49.628;10.850;2022-09-11T16:56:57;23.30;53.40
44863;DHT22;30597;49.628;10.850;2022-09-11T16:59:23;23.20;54.00
44863;DHT22;30597;49.628;10.850;2022-09-11T17:01:50;23.30;53.40
44863;DHT22;30597;49.628;10.850;2022-09-11T17:04:16;23.30;53.40
44863;DHT22;30597;49.628;10.850;2022-09-11T17:06:42;23.40;53.20
44863;DHT22;30597;49.628;10.850;2022-09-11T17:09:07;23.30;53.20
44863;DHT22;30597;49.628;10.850;2022-09-11T17:11:33;23.40;53.10
44863;DHT22;30597;49.628;10.850;2022-09-11T17:14:01;23.40;53.20
44863;DHT22;30597;49.628;10.850;2022-09-11T17:16:28;23.40;53.10
44863;DHT22;30597;49.628;10.850;2022-09-11T17:18:55;23.30;53.10
44863;DHT22;30597;49.628;10.850;2022-09-11T17:21:24;23.30;52.80
44863;DHT22;30597;49.628;10.850;2022-09-11T17:23:53;23.30;52.60
44863;DHT22;30597;49.628;10.850;2022-09-11T17:26:19;23.30;52.50
44863;DHT22;30597;49.628;10.850;2022-09-11T17:28:47;23.30;52.50